Time;durP1;ratioP1;P1;durP2;ratioP2;P2;SDS_P1;SDS_P2;PMS_P1;PMS_P2;Temp;Humidity;BMP_temperature;BMP_pressure;BME280_temperature;BME280_humidity;BME280_pressure;Samples;Min_cycle;Max_cycle;Signal;HPM_P1;HPM_P2
2021/08/20 00:01:07;;;;;;;13.05;7.60;;;;;;;13.02;94.83;99825.13;1714981;83;21006;-76
2021/08/20 00:03:33;;;;;;;10.38;6.40;;;;;;;13.03;94.67;99826.86;1686919;83;21115;-75
2021/08/20 00:06:01;;;;;;;15.23;8.03;;;;;;;13.03;94.53;99813.64;1714740;83;21087;-74
2021/08/20 00:08:27;;;;;;;17.52;7.17;;;;;;;13.00;94.50;99814.66;1714955;83;21076;-73
2021/08/20 00:10:55;;;;;;;12.95;7.58;;;;;;;12.99;94.65;99816.90;1714823;83;21022;-74
2021/08/20 00:13:23;;;;;;;12.25;8.05;;;;;;;12.96;94.61;99814.90;1733095;82;22161;-77
2021/08/20 00:15:50;;;;;;;12.80;7.12;;;;;;;12.94;94.58;99811.48;1717020;81;21141;-75
2021/08/20 00:18:17;;;;;;;10.58;6.00;;;;;;;12.94;94.65;99812.32;1717443;83;21064;-76
2021/08/20 00:20:45;;;;;;;11.80;7.85;;;;;;;12.95;94.67;99815.81;1717501;83;21060;-76
2021/08/20 00:23:12;;;;;;;11.40;6.75;;;;;;;12.95;94.88;99811.85;1717259;83;21604;-75
2021/08/20 00:25:38;;;;;;;13.68;7.53;;;;;;;12.97;94.92;99813.95;1739472;82;21057;-76
2021/08/20 00:28:05;;;;;;;15.55;7.17;;;;;;;12.97;94.94;99809.98;1747346;82;21115;-79
2021/08/20 00:30:32;;;;;;;12.50;7.25;;;;;;;12.98;95.03;99810.39;1735040;82;21053;-76
2021/08/20 00:32:59;;;;;;;12.03;6.97;;;;;;;12.96;95.07;99806.49;1747301;82;21085;-78
2021/08/20 00:35:26;;;;;;;12.30;6.85;;;;;;;12.96;95.19;99817.55;1747454;82;21049;-77
2021/08/20 00:37:53;;;;;;;11.55;6.67;;;;;;;12.92;95.46;99818.63;1747503;82;21049;-77
2021/08/20 00:40:20;;;;;;;13.72;7.53;;;;;;;12.92;95.61;99831.84;1739033;81;21413;-77
2021/08/20 00:42:49;;;;;;;10.08;6.62;;;;;;;12.89;95.81;99824.93;1717516;83;21069;-77
2021/08/20 00:45:15;;;;;;;13.08;7.90;;;;;;;12.91;95.96;99831.47;1717268;83;21038;-78
2021/08/20 00:47:41;;;;;;;13.43;7.40;;;;;;;12.92;96.26;99838.45;1717371;83;21014;-77
2021/08/20 00:50:10;;;;;;;11.57;7.30;;;;;;;12.92;96.44;99841.94;1717497;83;21084;-77
2021/08/20 00:52:40;;;;;;;11.55;6.80;;;;;;;12.93;96.63;99848.08;1717298;83;21119;-75
2021/08/20 00:55:14;;;;;;;10.03;6.72;;;;;;;12.95;96.59;99854.14;1717357;83;21540;-78
2021/08/20 00:57:51;;;;;;;13.70;7.28;;;;;;;12.97;96.31;99853.59;1717761;83;21037;-78
2021/08/20 01:00:22;;;;;;;9.58;7.17;;;;;;;12.97;96.22;99858.88;1717584;83;21140;-79
2021/08/20 01:02:49;;;;;;;7.90;4.90;;;;;;;12.96;96.39;99859.83;1718482;83;21566;-79
2021/08/20 01:05:19;;;;;;;16.10;7.47;;;;;;;12.95;96.26;99857.66;1717519;82;21974;-79
2021/08/20 01:07:50;;;;;;;12.45;7.65;;;;;;;12.96;96.60;99857.19;1717689;83;21784;-81
2021/08/20 01:10:18;;;;;;;7.90;5.87;;;;;;;12.95;96.58;99861.63;1692452;83;21656;-80
2021/08/20 01:12:47;;;;;;;14.25;7.53;;;;;;;12.93;96.60;99856.00;1717735;83;21134;-76
2021/08/20 01:15:14;;;;;;;15.28;7.85;;;;;;;12.90;96.91;99858.81;1712431;83;21063;-78
2021/08/20 01:17:42;;;;;;;14.65;7.95;;;;;;;12.87;97.30;99860.30;1704826;84;21152;-78
2021/08/20 01:20:13;;;;;;;12.43;7.37;;;;;;;12.83;97.52;99856.95;1707033;84;21079;-76
2021/08/20 01:22:41;;;;;;;10.60;6.83;;;;;;;12.80;97.91;99863.24;1707753;84;21063;-75
2021/08/20 01:25:11;;;;;;;13.55;7.60;;;;;;;12.80;98.19;99865.04;1705080;84;21040;-74
2021/08/20 01:27:41;;;;;;;15.83;7.37;;;;;;;12.77;98.40;99866.05;1705650;84;21571;-75
2021/08/20 01:30:11;;;;;;;10.90;6.60;;;;;;;12.74;98.48;99875.44;1705201;84;21088;-75
2021/08/20 01:32:39;;;;;;;13.43;7.20;;;;;;;12.71;98.61;99875.59;1705761;84;21126;-77
2021/08/20 01:35:09;;;;;;;12.18;7.33;;;;;;;12.72;98.92;99883.05;1706225;84;21086;-76
2021/08/20 01:37:37;;;;;;;15.28;8.33;;;;;;;12.71;99.22;99882.67;1706939;84;21074;-75
2021/08/20 01:40:07;;;;;;;19.10;8.15;;;;;;;12.70;99.63;99881.83;1706385;84;21087;-76
2021/08/20 01:42:33;;;;;;;10.60;7.35;;;;;;;12.70;99.93;99881.83;1706378;84;21072;-77
2021/08/20 01:45:00;;;;;;;14.75;8.10;;;;;;;12.70;100.00;99889.75;1707272;84;21098;-75
2021/08/20 01:47:28;;;;;;;15.13;7.60;;;;;;;12.71;100.00;99886.64;1706009;84;21123;-76
2021/08/20 01:49:55;;;;;;;10.95;6.25;;;;;;;12.71;100.00;99890.12;1705662;84;21078;-75
2021/08/20 01:52:23;;;;;;;12.70;6.67;;;;;;;12.72;100.00;99887.02;1706719;84;21020;-75
2021/08/20 01:54:49;;;;;;;9.00;5.17;;;;;;;12.74;100.00;99892.61;1706664;84;21126;-75
2021/08/20 01:57:18;;;;;;;13.45;7.45;;;;;;;12.74;100.00;99889.12;1707322;84;21618;-76
2021/08/20 01:59:45;;;;;;;9.25;6.47;;;;;;;12.76;100.00;99895.19;1708341;82;21056;-77
2021/08/20 02:02:12;;;;;;;8.65;6.25;;;;;;;12.78;100.00;99899.45;1708153;84;21107;-77
2021/08/20 02:04:39;;;;;;;14.13;7.70;;;;;;;12.80;100.00;99892.78;1706533;84;21593;-78
2021/08/20 02:07:05;;;;;;;13.28;7.40;;;;;;;12.82;100.00;99899.33;1708268;84;21839;-77
2021/08/20 02:09:32;;;;;;;14.73;7.87;;;;;;;12.80;100.00;99904.67;1708256;82;21008;-75
2021/08/20 02:12:02;;;;;;;13.28;7.75;;;;;;;12.75;100.00;99899.62;1706827;84;21024;-79
2021/08/20 02:14:30;;;;;;;8.78;5.05;;;;;;;12.73;100.00;99902.80;1704578;84;21084;-75
2021/08/20 02:16:57;;;;;;;12.75;7.00;;;;;;;12.70;100.00;99904.28;1704908;83;21047;-78
2021/08/20 02:19:24;;;;;;;16.55;7.47;;;;;;;12.70;100.00;99901.64;1704897;84;21152;-78
2021/08/20 02:21:50;;;;;;;10.23;5.95;;;;;;;12.71;100.00;99907.30;1705019;84;21657;-78
2021/08/20 02:24:19;;;;;;;12.33;7.45;;;;;;;12.69;100.00;99903.88;1704046;84;21122;-78
2021/08/20 02:26:49;;;;;;;11.43;7.12;;;;;;;12.72;100.00;99906.83;1704748;83;21068;-78
2021/08/20 02:29:16;;;;;;;14.75;7.95;;;;;;;12.69;100.00;99899.91;1704758;84;21095;-78
2021/08/20 02:31:43;;;;;;;11.97;8.00;;;;;;;12.68;100.00;99903.50;1704703;84;21122;-77
2021/08/20 02:34:11;;;;;;;13.20;6.75;;;;;;;12.69;100.00;99911.80;1704961;84;21129;-78
2021/08/20 02:36:39;;;;;;;11.53;7.67;;;;;;;12.67;100.00;99907.53;1705351;84;21037;-78
2021/08/20 02:39:06;;;;;;;11.05;7.33;;;;;;;12.65;100.00;99911.55;1705143;84;21027;-77
2021/08/20 02:41:33;;;;;;;11.88;7.97;;;;;;;12.62;100.00;99903.79;1709352;82;21011;-79
2021/08/20 02:44:00;;;;;;;15.45;8.58;;;;;;;12.60;100.00;99903.01;1735468;82;21162;-81
2021/08/20 02:46:27;;;;;;;9.30;6.10;;;;;;;12.58;100.00;99908.39;1735891;82;21050;-82
2021/08/20 02:48:55;;;;;;;12.03;8.20;;;;;;;12.56;100.00;99904.96;1735254;82;21621;-81
2021/08/20 02:51:23;;;;;;;11.35;7.08;;;;;;;12.57;100.00;99909.30;1735083;82;21057;-80
2021/08/20 02:53:51;;;;;;;11.90;7.83;;;;;;;12.57;100.00;99908.45;1734428;82;21050;-79
2021/08/20 02:56:19;;;;;;;21.02;7.90;;;;;;;12.57;100.00;99908.45;1706713;82;21763;-78
2021/08/20 02:58:48;;;;;;;10.48;5.90;;;;;;;12.60;100.00;99908.29;1724820;82;21073;-77
2021/08/20 03:01:14;;;;;;;11.00;7.40;;;;;;;12.63;100.00;99912.56;1719448;82;21062;-76
2021/08/20 03:03:43;;;;;;;16.12;8.08;;;;;;;12.64;100.00;99912.50;1705137;84;21643;-78
2021/08/20 03:06:11;;;;;;;13.10;7.45;;;;;;;12.64;100.00;99917.78;1704437;84;21050;-77
2021/08/20 03:08:38;;;;;;;11.60;7.53;;;;;;;12.64;100.00;99919.11;1705293;83;21267;-77
2021/08/20 03:11:06;;;;;;;7.20;5.33;;;;;;;12.65;100.00;99918.16;1704984;84;21074;-75
2021/08/20 03:13:35;;;;;;;13.43;6.92;;;;;;;12.65;100.00;99919.95;1704937;84;21500;-75
2021/08/20 03:16:03;;;;;;;15.40;7.45;;;;;;;12.68;100.00;99920.67;1709267;82;21099;-77
2021/08/20 03:18:31;;;;;;;11.55;6.80;;;;;;;12.71;100.00;99921.83;1715727;83;21064;-76
2021/08/20 03:21:00;;;;;;;9.75;7.30;;;;;;;12.73;100.00;99925.26;1715245;81;21891;-77
2021/08/20 03:23:33;;;;;;;12.43;7.20;;;;;;;12.82;100.00;99927.08;1741655;82;21095;-76
2021/08/20 03:26:02;;;;;;;10.48;7.20;;;;;;;12.99;100.00;99931.03;1744895;82;21038;-78
2021/08/20 03:28:29;;;;;;;12.70;7.22;;;;;;;13.16;100.00;99928.41;1722439;80;21128;-78
2021/08/20 03:30:57;;;;;;;12.20;6.95;;;;;;;13.36;100.00;99922.11;1729481;82;21465;-78
2021/08/20 03:33:24;;;;;;;10.85;7.10;;;;;;;13.57;100.00;99924.13;1745160;82;21158;-78
2021/08/20 03:35:52;;;;;;;9.38;7.03;;;;;;;13.81;100.00;99922.43;1744520;82;21037;-75
2021/08/20 03:38:22;;;;;;;15.70;6.60;;;;;;;14.06;99.96;99929.42;1745732;82;21284;-75
2021/08/20 03:40:49;;;;;;;12.95;7.50;;;;;;;14.26;98.77;99918.19;1746626;82;20987;-75
2021/08/20 03:43:18;;;;;;;9.55;6.45;;;;;;;14.52;97.97;99925.17;1746264;82;21018;-75
2021/08/20 03:45:50;;;;;;;9.33;6.58;;;;;;;14.75;96.87;99923.41;1745201;82;21169;-77
2021/08/20 03:48:20;;;;;;;11.75;7.58;;;;;;;15.00;95.44;99928.59;1744230;82;21070;-75
2021/08/20 03:50:48;;;;;;;11.50;6.55;;;;;;;15.24;94.62;99923.17;1744837;82;21519;-77
2021/08/20 03:53:15;;;;;;;10.78;6.50;;;;;;;15.44;93.48;99923.31;1744735;82;21014;-75
2021/08/20 03:55:42;;;;;;;10.65;5.95;;;;;;;15.79;92.36;99922.14;1744930;82;21526;-77
2021/08/20 03:58:28;;;;;;;9.23;5.90;;;;;;;16.21;91.14;99923.04;1741062;82;21186;-77
2021/08/20 04:00:56;;;;;;;14.00;6.20;;;;;;;16.68;88.90;99916.44;1742344;82;21054;-75
2021/08/20 04:03:23;;;;;;;9.20;5.83;;;;;;;17.08;87.28;99920.48;1734693;82;21033;-81
2021/08/20 04:05:51;;;;;;;9.88;5.53;;;;;;;17.54;85.16;99914.20;1732506;82;21054;-79
2021/08/20 04:08:20;;;;;;;10.88;5.33;;;;;;;17.96;83.19;99914.83;1690439;82;21408;-73
2021/08/20 04:10:57;;;;;;;10.48;6.12;;;;;;;18.38;80.41;99925.17;1731914;82;21141;-74
2021/08/20 04:13:30;;;;;;;8.35;5.58;;;;;;;18.73;77.71;99929.75;1731553;82;21125;-74
2021/08/20 04:16:03;;;;;;;7.00;5.22;;;;;;;18.99;75.27;99928.67;1737214;81;21089;-72
2021/08/20 04:18:29;;;;;;;6.00;5.28;;;;;;;19.22;74.84;99922.08;1730914;82;21065;-73
2021/08/20 04:20:57;;;;;;;7.35;4.90;;;;;;;19.53;73.80;99919.70;1726359;82;21572;-72
2021/08/20 04:23:27;;;;;;;4.70;3.23;;;;;;;19.83;71.92;99920.03;1727805;82;21236;-74
2021/08/20 04:25:56;;;;;;;6.83;3.98;;;;;;;20.12;71.26;99909.67;1729146;82;21105;-74
2021/08/20 04:28:26;;;;;;;7.03;5.72;;;;;;;20.41;69.38;99912.31;1705732;82;21139;-74
2021/08/20 04:31:04;;;;;;;5.45;4.08;;;;;;;20.65;67.38;99914.83;1726842;82;21006;-73
2021/08/20 04:33:38;;;;;;;13.20;6.47;;;;;;;20.80;66.48;99916.23;1724416;82;21050;-74
2021/08/20 04:36:17;;;;;;;9.18;4.55;;;;;;;21.00;64.98;99921.24;1717021;83;21041;-74
2021/08/20 04:39:03;;;;;;;22.60;4.22;;;;;;;21.27;64.63;99930.62;1722323;82;21014;-75
2021/08/20 04:41:44;;;;;;;10.10;4.78;;;;;;;21.63;62.75;99915.94;1720859;82;21065;-73
2021/08/20 04:44:25;;;;;;;7.30;4.60;;;;;;;21.96;61.28;99912.13;1736028;82;21645;-74
2021/08/20 04:47:12;;;;;;;7.50;4.45;;;;;;;22.23;59.55;99916.56;1723819;82;21137;-71
2021/08/20 04:49:55;;;;;;;6.35;4.03;;;;;;;22.45;58.77;99917.66;1714724;82;21168;-74
2021/08/20 04:52:24;;;;;;;7.28;4.20;;;;;;;22.61;57.70;99917.11;1719283;82;21623;-75
2021/08/20 04:55:00;;;;;;;7.08;3.52;;;;;;;22.74;56.78;99915.02;1721897;82;21082;-75
2021/08/20 04:57:26;;;;;;;10.65;4.20;;;;;;;22.85;56.46;99917.23;1698320;82;21030;-74
2021/08/20 04:59:53;;;;;;;6.62;4.03;;;;;;;23.11;56.18;99921.56;1730177;82;21048;-75
2021/08/20 05:02:20;;;;;;;5.92;4.22;;;;;;;23.44;54.48;99921.56;1722447;82;21162;-76
2021/08/20 05:04:46;;;;;;;8.20;4.10;;;;;;;23.70;53.49;99919.62;1723247;82;21049;-75
2021/08/20 05:07:13;;;;;;;17.05;4.35;;;;;;;23.96;51.80;99911.76;1717632;82;21540;-76
2021/08/20 05:09:40;;;;;;;6.50;3.92;;;;;;;24.16;51.87;99908.48;1720340;82;21053;-76
2021/08/20 05:12:09;;;;;;;10.45;4.17;;;;;;;24.27;50.67;99912.29;1729211;82;21075;-75
2021/08/20 05:14:35;;;;;;;6.42;3.95;;;;;;;24.36;50.42;99913.23;1717874;82;21102;-74
2021/08/20 05:17:02;;;;;;;4.58;3.80;;;;;;;24.49;49.45;99913.25;1722900;80;21021;-73
2021/08/20 05:19:29;;;;;;;4.53;3.20;;;;;;;24.64;49.09;99907.33;1721091;82;21045;-74
2021/08/20 05:21:55;;;;;;;7.05;3.60;;;;;;;24.88;48.76;99906.23;1719852;82;21045;-75
2021/08/20 05:24:23;;;;;;;4.30;3.20;;;;;;;24.97;47.50;99906.31;1727605;82;21046;-75
2021/08/20 05:26:49;;;;;;;7.20;3.87;;;;;;;25.01;46.57;99907.20;1732029;82;21168;-75
2021/08/20 05:29:17;;;;;;;6.22;3.60;;;;;;;24.96;46.89;99903.27;1718555;82;21029;-76
2021/08/20 05:31:44;;;;;;;6.37;3.30;;;;;;;25.04;46.91;99900.14;1724572;82;21104;-75
2021/08/20 05:34:11;;;;;;;4.50;3.83;;;;;;;25.21;46.46;99901.14;1719271;82;21493;-75
2021/08/20 05:36:38;;;;;;;6.58;3.42;;;;;;;25.35;46.52;99905.12;1718533;82;21110;-74
2021/08/20 05:39:06;;;;;;;13.28;3.70;;;;;;;25.64;45.70;99900.77;1725517;81;21557;-74
2021/08/20 05:41:32;;;;;;;5.70;3.20;;;;;;;25.95;44.98;99897.57;1741620;82;21125;-75
2021/08/20 05:43:59;;;;;;;7.45;3.37;;;;;;;26.27;44.82;99899.58;1744985;82;21061;-74
2021/08/20 05:46:26;;;;;;;7.33;3.75;;;;;;;26.68;44.12;99902.89;1728607;82;21776;-75
2021/08/20 05:48:53;;;;;;;6.35;3.22;;;;;;;27.06;43.54;99901.41;1729536;82;21077;-74
2021/08/20 05:51:21;;;;;;;7.17;3.75;;;;;;;27.37;41.90;99906.14;1731699;82;21111;-73
2021/08/20 05:53:49;;;;;;;6.15;3.00;;;;;;;27.58;41.71;99897.48;1727784;82;21573;-76
2021/08/20 05:56:16;;;;;;;4.25;3.02;;;;;;;27.83;41.00;99899.12;1731866;82;21045;-76
2021/08/20 05:58:42;;;;;;;10.15;2.70;;;;;;;28.11;39.65;99888.38;1729278;82;21057;-76
2021/08/20 06:01:10;;;;;;;4.50;3.17;;;;;;;28.23;39.81;99889.69;1727736;82;21086;-76
2021/08/20 06:03:38;;;;;;;5.70;2.83;;;;;;;28.39;39.25;99898.20;1721983;82;21517;-75
2021/08/20 06:06:14;;;;;;;5.83;2.77;;;;;;;28.56;39.00;99894.42;1716862;80;21109;-76
2021/08/20 06:08:43;;;;;;;5.00;2.95;;;;;;;28.70;38.56;99894.16;1730460;82;21089;-74
2021/08/20 06:11:09;;;;;;;3.92;2.98;;;;;;;28.95;37.93;99895.34;1714800;83;21026;-75
2021/08/20 06:13:37;;;;;;;8.88;3.10;;;;;;;29.10;37.95;99896.23;1714716;83;21045;-73
2021/08/20 06:16:04;;;;;;;4.90;3.02;;;;;;;29.24;37.19;99898.17;1714880;82;21096;-75
2021/08/20 06:18:32;;;;;;;4.17;2.90;;;;;;;29.31;37.06;99894.20;1717351;83;21083;-75
2021/08/20 06:21:00;;;;;;;3.85;2.80;;;;;;;29.26;36.44;99885.76;1717316;82;21540;-76
2021/08/20 06:23:27;;;;;;;9.35;3.58;;;;;;;29.23;37.31;99896.98;1717030;83;21089;-76
2021/08/20 06:25:54;;;;;;;9.08;2.90;;;;;;;29.35;37.17;99891.95;1716664;83;21544;-74
2021/08/20 06:31:25;;;;;;;4.83;2.80;;;;;;;29.77;36.83;99881.88;1801676;78;23194;-74
2021/08/20 06:33:53;;;;;;;6.05;2.62;;;;;;;29.93;35.58;99878.62;1738260;82;21473;-76
2021/08/20 06:36:20;;;;;;;4.65;2.47;;;;;;;29.82;36.05;99884.87;1747121;81;21532;-74
2021/08/20 06:38:47;;;;;;;3.87;2.30;;;;;;;29.92;36.13;99883.73;1748021;81;21443;-74
2021/08/20 06:41:14;;;;;;;6.10;2.60;;;;;;;30.08;35.46;99883.52;1746840;81;21142;-77
2021/08/20 06:43:43;;;;;;;3.00;2.37;;;;;;;30.09;34.63;99877.91;1753320;80;21125;-75
2021/08/20 06:46:11;;;;;;;13.40;3.60;;;;;;;30.02;34.39;99879.67;1753460;81;21585;-75
2021/08/20 06:48:37;;;;;;;6.70;2.92;;;;;;;29.93;34.74;99884.05;1698128;83;21142;-76
2021/08/20 06:51:03;;;;;;;13.70;3.17;;;;;;;29.95;34.68;99884.70;1722370;83;21088;-74
2021/08/20 06:53:30;;;;;;;3.67;2.33;;;;;;;29.97;35.33;99883.48;1717562;83;21124;-74
2021/08/20 06:55:57;;;;;;;6.40;2.33;;;;;;;30.09;35.22;99877.05;1693503;83;21070;-76
2021/08/20 06:58:24;;;;;;;9.88;2.67;;;;;;;30.47;33.64;99885.06;1693405;83;21061;-76
2021/08/20 07:00:51;;;;;;;7.15;2.47;;;;;;;30.55;34.00;99876.77;1722534;83;21171;-76
2021/08/20 07:03:17;;;;;;;6.10;2.50;;;;;;;30.63;33.46;99876.66;1722174;83;21065;-75
2021/08/20 07:05:44;;;;;;;18.52;3.25;;;;;;;30.70;33.60;99877.56;1693606;84;21086;-75
2021/08/20 07:08:11;;;;;;;9.85;2.50;;;;;;;31.08;33.19;99880.05;1693668;83;21046;-75
2021/08/20 07:10:37;;;;;;;8.05;2.30;;;;;;;31.50;32.86;99879.66;1722474;83;21069;-75
2021/08/20 07:13:04;;;;;;;7.92;2.67;;;;;;;31.88;31.69;99879.76;1722361;82;21084;-75
2021/08/20 07:15:31;;;;;;;4.40;1.77;;;;;;;31.93;31.53;99873.18;1692754;83;21740;-76
2021/08/20 07:17:58;;;;;;;3.90;2.12;;;;;;;32.05;31.44;99874.83;1707575;83;21081;-76
2021/08/20 07:20:26;;;;;;;3.87;2.05;;;;;;;32.29;30.62;99874.30;1722377;83;21552;-74
2021/08/20 07:22:53;;;;;;;4.30;2.30;;;;;;;32.34;29.60;99879.97;1687238;83;21670;-74
2021/08/20 07:25:20;;;;;;;7.08;2.22;;;;;;;32.09;30.08;99880.20;1722583;83;21138;-75
2021/08/20 07:27:46;;;;;;;3.47;1.52;;;;;;;31.97;29.98;99882.13;1671409;83;21042;-74
2021/08/20 07:30:14;;;;;;;3.72;2.35;;;;;;;31.87;30.26;99876.20;1714060;81;21074;-73
2021/08/20 07:32:43;;;;;;;3.75;2.08;;;;;;;32.00;29.88;99882.77;1738462;82;21061;-74
2021/08/20 07:35:10;;;;;;;3.45;1.95;;;;;;;32.11;29.86;99886.28;1706608;83;21057;-75
2021/08/20 07:37:37;;;;;;;4.37;2.40;;;;;;;31.97;29.20;99887.58;1742286;82;22002;-72
2021/08/20 07:40:06;;;;;;;7.85;2.00;;;;;;;31.64;30.01;99883.83;1707782;83;21968;-74
2021/08/20 07:42:33;;;;;;;3.42;1.98;;;;;;;31.55;30.41;99882.61;1721396;83;21007;-73
2021/08/20 07:45:08;;;;;;;2.75;2.20;;;;;;;31.65;30.22;99882.25;1701861;84;21565;-73
2021/08/20 07:47:50;;;;;;;11.65;2.72;;;;;;;31.77;29.70;99874.35;1725701;82;21049;-74
2021/08/20 07:50:16;;;;;;;6.45;2.20;;;;;;;31.83;29.44;99874.09;1728317;82;21775;-75
2021/08/20 07:52:44;;;;;;;3.85;2.00;;;;;;;31.93;29.29;99868.59;1746060;82;21037;-73
2021/08/20 07:55:12;;;;;;;6.33;2.10;;;;;;;31.94;29.37;99876.23;1699890;83;21604;-72
2021/08/20 07:57:52;;;;;;;9.23;2.87;;;;;;;31.91;29.66;99869.31;1742356;81;21153;-73
2021/08/20 08:00:25;;;;;;;5.70;2.22;;;;;;;31.94;29.26;99877.07;1732705;82;21098;-74
2021/08/20 08:02:52;;;;;;;5.28;2.67;;;;;;;32.06;29.64;99866.99;1739101;82;21132;-72
2021/08/20 08:05:20;;;;;;;10.18;2.40;;;;;;;32.30;28.95;99864.23;1742931;82;21102;-74
2021/08/20 08:07:46;;;;;;;4.90;1.98;;;;;;;32.31;29.27;99859.95;1710408;84;20979;-73
2021/08/20 08:10:14;;;;;;;5.97;2.22;;;;;;;32.53;28.68;99862.55;1746862;81;21599;-73
2021/08/20 08:12:40;;;;;;;2.95;2.25;;;;;;;32.53;28.97;99859.32;1746970;82;21009;-74
2021/08/20 08:15:08;;;;;;;3.98;1.95;;;;;;;32.60;29.42;99862.03;1744832;82;21199;-73
2021/08/20 08:17:37;;;;;;;5.80;2.20;;;;;;;32.66;28.59;99854.39;1741487;82;21054;-74
2021/08/20 08:20:06;;;;;;;3.83;2.20;;;;;;;32.55;29.06;99851.75;1740704;82;21013;-74
2021/08/20 08:22:32;;;;;;;6.50;2.00;;;;;;;32.77;28.88;99853.78;1742176;82;21119;-74
2021/08/20 08:25:00;;;;;;;4.22;2.45;;;;;;;32.80;27.53;99851.99;1706928;83;21140;-74
2021/08/20 08:27:26;;;;;;;4.03;1.82;;;;;;;32.59;27.33;99839.39;1742536;82;21934;-73
2021/08/20 08:29:54;;;;;;;2.40;1.87;;;;;;;32.18;28.36;99848.48;1742558;82;21099;-73
2021/08/20 08:32:20;;;;;;;4.95;2.10;;;;;;;32.12;29.06;99844.41;1729063;81;21093;-74
2021/08/20 08:34:47;;;;;;;3.17;2.12;;;;;;;32.16;28.66;99849.73;1719615;83;21580;-74
2021/08/20 08:37:15;;;;;;;9.65;2.25;;;;;;;32.16;28.94;99852.45;1719642;83;21057;-73
2021/08/20 08:39:43;;;;;;;10.00;2.90;;;;;;;32.23;28.51;99850.59;1665107;84;22002;-73
2021/08/20 08:42:09;;;;;;;2.98;1.70;;;;;;;32.28;28.84;99846.75;1689627;84;21107;-74
2021/08/20 08:44:36;;;;;;;3.58;1.92;;;;;;;32.27;28.33;99845.05;1655027;84;22054;-74
2021/08/20 08:47:05;;;;;;;5.17;1.95;;;;;;;32.36;28.59;99845.19;1715034;83;21105;-74
2021/08/20 08:49:31;;;;;;;7.50;2.00;;;;;;;32.79;27.77;99846.77;1690037;84;21085;-74
2021/08/20 08:51:58;;;;;;;10.20;2.22;;;;;;;32.86;27.77;99849.50;1697926;83;21788;-72
2021/08/20 08:54:24;;;;;;;10.28;2.00;;;;;;;33.07;27.57;99854.77;1713043;83;21061;-73
2021/08/20 08:56:51;;;;;;;4.30;1.80;;;;;;;33.35;26.64;99833.23;1689277;84;21084;-74
2021/08/20 08:59:17;;;;;;;3.30;1.90;;;;;;;33.46;26.17;99840.77;1719850;82;21033;-73
2021/08/20 09:01:43;;;;;;;2.70;1.82;;;;;;;33.22;26.75;99840.39;1690816;83;21031;-73
2021/08/20 09:04:17;;;;;;;6.62;2.17;;;;;;;33.25;26.35;99845.11;1719988;83;21541;-73
2021/08/20 09:06:46;;;;;;;13.40;2.17;;;;;;;33.07;27.18;99841.13;1704536;83;21061;-73
2021/08/20 09:09:16;;;;;;;4.47;1.87;;;;;;;32.99;27.49;99842.66;1712985;83;21120;-74
2021/08/20 09:11:43;;;;;;;7.07;2.00;;;;;;;33.02;27.94;99846.35;1690972;84;21514;-73
2021/08/20 09:14:12;;;;;;;4.53;2.02;;;;;;;33.24;27.98;99842.89;1720201;82;21797;-74
2021/08/20 09:16:41;;;;;;;3.33;1.92;;;;;;;33.35;27.78;99850.43;1651713;84;21777;-73
2021/08/20 09:19:18;;;;;;;4.20;2.07;;;;;;;32.72;29.02;99849.48;1719488;83;21125;-74
2021/08/20 09:21:54;;;;;;;9.10;2.65;;;;;;;32.72;29.02;99849.48;1719281;83;21087;-75
2021/08/20 09:24:38;;;;;;;17.75;2.58;;;;;;;32.79;28.52;99855.78;1701259;84;21076;-74
2021/08/20 09:27:25;;;;;;;5.83;2.27;;;;;;;32.97;28.40;99841.53;1685050;84;21200;-75
2021/08/20 09:30:07;;;;;;;8.43;2.22;;;;;;;33.06;28.37;99840.83;1719396;83;21148;-74
2021/08/20 09:32:36;;;;;;;6.15;2.00;;;;;;;32.95;28.52;99850.44;1698333;83;21042;-75
2021/08/20 09:35:06;;;;;;;;;;;;;;;32.92;28.44;99856.83;1735952;81;21105;-76
2021/08/20 09:37:32;;;;;;;18.05;2.95;;;;;;;32.94;28.21;99854.73;1746828;82;20209;-74
2021/08/20 09:40:04;;;;;;;3.40;2.12;;;;;;;32.90;27.85;99864.37;1708999;83;21069;-75
2021/08/20 09:42:29;;;;;;;4.92;2.10;;;;;;;32.81;28.08;99853.69;1750228;81;21484;-76
2021/08/20 09:45:21;;;;;;;13.45;2.62;;;;;;;32.83;28.56;99852.62;1710719;83;22075;-75
2021/08/20 09:47:54;;;;;;;5.97;2.20;;;;;;;32.95;28.32;99861.88;1672749;83;21040;-73
2021/08/20 09:50:24;;;;;;;5.30;1.90;;;;;;;33.17;27.42;99853.80;1747047;81;21036;-75
2021/08/20 09:52:51;;;;;;;;;;;;;;;33.11;26.93;99849.74;1697213;82;21157;-75
2021/08/20 09:55:37;;;;;;;5.62;2.20;;;;;;;32.87;26.38;99845.71;1734532;80;21503;-74
2021/08/20 09:58:10;;;;;;;7.92;1.87;;;;;;;32.58;28.17;99855.98;1746297;82;21632;-74
2021/08/20 10:00:36;;;;;;;5.90;1.75;;;;;;;32.59;27.63;99854.91;1750644;82;21102;-74
2021/08/20 10:03:06;;;;;;;4.47;2.15;;;;;;;32.78;26.36;99854.12;1750300;81;21123;-74
2021/08/20 10:05:34;;;;;;;8.08;2.17;;;;;;;32.70;26.90;99839.84;1738988;81;21045;-75
2021/08/20 10:08:01;;;;;;;5.30;2.20;;;;;;;32.69;26.93;99843.06;1745326;80;21564;-73
2021/08/20 10:10:29;;;;;;;2.65;1.45;;;;;;;32.85;27.36;99842.35;1740431;82;21030;-75
2021/08/20 10:12:56;;;;;;;3.25;1.60;;;;;;;32.95;27.50;99847.72;1742430;82;21015;-74
2021/08/20 10:15:24;;;;;;;7.10;1.87;;;;;;;33.13;26.83;99845.75;1709273;83;21125;-73
2021/08/20 10:17:52;;;;;;;4.50;1.80;;;;;;;33.24;26.78;99841.52;1750239;81;21066;-74
2021/08/20 10:20:19;;;;;;;5.80;1.90;;;;;;;33.16;26.37;99845.32;1714147;83;21165;-73
2021/08/20 10:22:45;;;;;;;3.75;1.92;;;;;;;33.25;25.76;99836.93;1751337;81;21060;-72
2021/08/20 10:25:11;;;;;;;2.62;1.70;;;;;;;33.17;26.28;99842.89;1746638;81;21504;-75
2021/08/20 10:27:38;;;;;;;7.15;1.62;;;;;;;33.14;25.65;99837.87;1746719;82;21041;-74
2021/08/20 10:30:08;;;;;;;5.62;1.87;;;;;;;33.09;26.26;99841.77;1750026;80;21632;-75
2021/08/20 10:32:34;;;;;;;9.43;2.37;;;;;;;33.16;26.00;99824.86;1696835;82;21146;-77
2021/08/20 10:35:00;;;;;;;2.12;1.55;;;;;;;33.08;25.67;99831.88;1714018;83;21077;-75
2021/08/20 10:37:34;;;;;;;7.40;1.85;;;;;;;33.03;26.34;99833.02;1749677;82;21116;-76
2021/08/20 10:40:23;;;;;;;3.75;1.65;;;;;;;32.95;25.76;99825.06;1713346;83;21109;-76
2021/08/20 10:42:51;;;;;;;5.12;1.37;;;;;;;32.76;26.00;99828.94;1684337;84;27173;-74
2021/08/20 10:45:19;;;;;;;6.42;3.70;;;;;;;32.59;27.30;99823.03;1730900;82;21113;-74
2021/08/20 10:47:48;;;;;;;2.15;1.85;;;;;;;32.60;26.62;99829.32;1745323;82;21035;-75
2021/08/20 10:50:18;;;;;;;2.30;1.45;;;;;;;32.81;25.94;99816.88;1749772;82;21561;-77
2021/08/20 10:52:50;;;;;;;4.22;2.08;;;;;;;32.55;26.17;99820.94;1720378;82;21604;-76
2021/08/20 10:55:32;;;;;;;4.15;1.60;;;;;;;32.36;26.53;99829.37;1749807;82;21097;-75
2021/08/20 10:58:03;;;;;;;1.95;1.40;;;;;;;32.50;26.81;99826.14;1742165;82;21139;-74
2021/08/20 11:00:35;;;;;;;11.73;2.27;;;;;;;32.67;26.91;99829.33;1729715;82;21031;-75
2021/08/20 11:03:06;;;;;;;6.08;1.37;;;;;;;32.68;26.43;99835.12;1745018;82;21067;-75
2021/08/20 11:05:46;;;;;;;2.90;1.60;;;;;;;32.67;27.18;99835.64;1750474;82;21189;-76
2021/08/20 11:08:33;;;;;;;22.07;2.37;;;;;;;32.67;26.12;99834.28;1735868;81;21579;-76
2021/08/20 11:11:01;;;;;;;9.53;1.70;;;;;;;32.55;26.17;99829.11;1743551;81;21521;-73
2021/08/20 11:13:30;;;;;;;2.98;1.47;;;;;;;32.17;26.29;99831.00;1749742;82;21093;-74
2021/08/20 11:15:56;;;;;;;20.23;3.00;;;;;;;31.83;26.19;99849.05;1750421;81;21540;-73
2021/08/20 11:18:49;;;;;;;4.70;2.37;;;;;;;31.78;26.92;99839.30;1745164;81;21255;-73
2021/08/20 11:21:44;;;;;;;7.47;2.00;;;;;;;31.74;27.21;99836.13;1723849;82;21069;-73
2021/08/20 11:24:19;;;;;;;3.22;1.30;;;;;;;31.76;26.27;99831.33;1734097;82;21024;-72
2021/08/20 11:26:46;;;;;;;2.80;1.57;;;;;;;31.66;26.82;99832.75;1725661;82;21061;-73
2021/08/20 11:29:16;;;;;;;2.67;1.40;;;;;;;31.60;26.33;99829.47;1745085;80;21029;-72
2021/08/20 11:31:44;;;;;;;2.62;1.60;;;;;;;31.65;26.09;99831.06;1742659;81;21022;-72
2021/08/20 11:34:10;;;;;;;4.55;2.00;;;;;;;31.67;26.36;99834.42;1722504;82;21362;-74
2021/08/20 11:36:43;;;;;;;3.12;1.60;;;;;;;31.78;26.22;99827.88;1742293;82;21092;-73
2021/08/20 11:39:12;;;;;;;5.37;1.90;;;;;;;31.86;26.17;99828.22;1685877;84;21107;-73
2021/08/20 11:41:44;;;;;;;2.67;1.57;;;;;;;31.79;25.56;99813.73;1720858;82;21145;-74